Time;durP1;ratioP1;P1;durP2;ratioP2;P2;SDS_P1;SDS_P2;PMS_P1;PMS_P2;Temp;Humidity;BMP_temperature;BMP_pressure;BME280_temperature;BME280_humidity;BME280_pressure;Samples;Min_cycle;Max_cycle;Signal;HPM_P1;HPM_P2
2024/02/19 00:01:33;;;;;;;10.40;1.30;;;7.10;99.90;;;;;;5044116;28;20549;-72
2024/02/19 00:03:59;;;;;;;14.52;2.13;;;7.20;99.90;;;;;;5030942;28;20139;-71
2024/02/19 00:06:26;;;;;;;14.40;2.08;;;7.20;99.90;;;;;;5026877;28;20154;-72
2024/02/19 00:08:52;;;;;;;15.65;2.10;;;7.20;99.90;;;;;;5012442;28;20041;-72
2024/02/19 00:11:18;;;;;;;17.80;2.45;;;7.20;99.90;;;;;;5030163;28;20059;-72
2024/02/19 00:13:45;;;;;;;9.80;1.67;;;7.20;99.90;;;;;;5016866;28;20365;-72
2024/02/19 00:16:10;;;;;;;13.13;2.15;;;7.20;99.90;;;;;;5022451;28;20554;-72
2024/02/19 00:18:36;;;;;;;9.07;1.35;;;7.20;99.90;;;;;;5037115;28;20177;-71
2024/02/19 00:21:03;;;;;;;12.98;1.60;;;7.20;99.90;;;;;;5045120;28;20503;-72
2024/02/19 00:23:29;;;;;;;10.55;1.30;;;7.20;99.90;;;;;;5045658;28;20153;-71
2024/02/19 00:25:55;;;;;;;12.10;1.35;;;7.20;99.90;;;;;;5036204;28;20060;-71
2024/02/19 00:28:21;;;;;;;12.50;1.85;;;7.20;99.90;;;;;;5032367;28;20055;-72
2024/02/19 00:30:47;;;;;;;14.73;1.23;;;7.20;99.90;;;;;;5045345;28;20095;-71
2024/02/19 00:33:13;;;;;;;8.40;1.30;;;7.30;99.90;;;;;;5037500;28;20041;-71
2024/02/19 00:35:38;;;;;;;15.77;1.70;;;7.30;99.90;;;;;;5019642;28;20115;-71
2024/02/19 00:38:04;;;;;;;13.02;1.33;;;7.30;99.90;;;;;;5015955;28;20049;-71
2024/02/19 00:40:30;;;;;;;16.13;1.80;;;7.30;99.90;;;;;;5014534;28;20546;-71
2024/02/19 00:42:56;;;;;;;9.48;1.20;;;7.30;99.90;;;;;;5009301;28;20105;-71
2024/02/19 00:45:22;;;;;;;20.98;1.92;;;7.30;99.90;;;;;;5059278;28;20110;-71
2024/02/19 00:47:47;;;;;;;13.45;1.98;;;7.30;99.90;;;;;;5025545;28;20167;-71
2024/02/19 00:50:13;;;;;;;14.57;1.88;;;7.30;99.90;;;;;;5017558;28;20144;-71
2024/02/19 00:52:40;;;;;;;17.70;1.80;;;7.30;99.90;;;;;;5027094;28;20049;-71
2024/02/19 00:55:07;;;;;;;15.55;2.33;;;7.40;99.90;;;;;;5040334;28;20449;-71
2024/02/19 00:57:32;;;;;;;23.95;2.53;;;7.40;99.90;;;;;;5033239;28;20044;-71
2024/02/19 00:59:58;;;;;;;25.00;3.13;;;7.40;99.90;;;;;;5036078;28;20055;-71
2024/02/19 01:02:24;;;;;;;17.45;2.33;;;7.40;99.90;;;;;;5040059;28;20402;-71
2024/02/19 01:04:53;;;;;;;20.20;2.10;;;7.40;99.90;;;;;;5045143;28;20101;-71
2024/02/19 01:07:20;;;;;;;12.55;1.80;;;7.40;99.90;;;;;;5028143;28;20091;-71
2024/02/19 01:09:49;;;;;;;11.00;2.33;;;7.40;99.90;;;;;;5045332;28;20086;-71
2024/02/19 01:12:15;;;;;;;16.10;2.80;;;7.40;99.90;;;;;;5024890;28;20560;-71
2024/02/19 01:14:41;;;;;;;21.42;1.80;;;7.40;99.90;;;;;;5038227;28;20507;-71
2024/02/19 01:17:10;;;;;;;18.13;2.30;;;7.40;99.90;;;;;;5020071;28;20037;-71
2024/02/19 01:19:35;;;;;;;23.27;2.05;;;7.30;99.90;;;;;;5039866;28;20126;-71
2024/02/19 01:22:02;;;;;;;19.05;1.88;;;7.40;99.90;;;;;;5021365;28;20102;-70
2024/02/19 01:24:28;;;;;;;14.32;1.75;;;7.30;99.90;;;;;;5044000;28;20056;-70
2024/02/19 01:26:53;;;;;;;18.73;2.10;;;7.40;99.90;;;;;;5041731;28;20056;-71
2024/02/19 01:29:20;;;;;;;14.48;1.92;;;7.40;99.90;;;;;;5009914;28;20454;-71
2024/02/19 01:31:45;;;;;;;21.88;3.10;;;7.40;99.90;;;;;;5039140;28;20148;-71
2024/02/19 01:34:11;;;;;;;11.45;2.70;;;7.40;99.90;;;;;;5027254;28;20132;-70
2024/02/19 01:36:37;;;;;;;20.38;2.47;;;7.40;99.90;;;;;;5029975;28;20048;-70
2024/02/19 01:39:03;;;;;;;16.63;1.77;;;7.40;99.90;;;;;;5044821;28;20043;-70
2024/02/19 01:41:29;;;;;;;13.30;2.05;;;7.40;99.90;;;;;;5030661;28;20064;-70
2024/02/19 01:43:55;;;;;;;27.98;4.30;;;7.40;99.90;;;;;;5040770;28;20044;-70
2024/02/19 01:46:21;;;;;;;21.63;3.38;;;7.40;99.90;;;;;;5044772;28;20097;-71
2024/02/19 01:48:47;;;;;;;33.53;5.13;;;7.40;99.90;;;;;;5030555;28;20055;-70
2024/02/19 01:51:16;;;;;;;26.73;5.53;;;7.30;99.90;;;;;;5043403;28;20362;-71
2024/02/19 01:53:43;;;;;;;25.73;3.58;;;7.30;99.90;;;;;;5044326;28;20048;-71
2024/02/19 01:56:10;;;;;;;20.05;3.15;;;7.30;99.90;;;;;;5032448;28;20044;-70
2024/02/19 01:58:37;;;;;;;21.92;3.08;;;7.30;99.90;;;;;;5044153;28;20055;-71
2024/02/19 02:01:04;;;;;;;32.00;4.35;;;7.30;99.90;;;;;;5019662;28;20182;-71
2024/02/19 02:03:32;;;;;;;23.98;3.67;;;7.30;99.90;;;;;;5030965;28;20057;-71
2024/02/19 02:05:59;;;;;;;37.95;5.32;;;7.30;99.90;;;;;;5047702;28;20388;-70
2024/02/19 02:08:25;;;;;;;23.30;4.20;;;7.40;99.90;;;;;;5030916;28;20044;-71
2024/02/19 02:10:50;;;;;;;28.63;3.50;;;7.40;99.90;;;;;;5025217;28;20056;-71
2024/02/19 02:13:18;;;;;;;20.50;2.75;;;7.50;99.90;;;;;;5043564;28;20279;-71
2024/02/19 02:15:44;;;;;;;24.10;3.40;;;7.50;99.90;;;;;;5045664;28;20048;-70
2024/02/19 02:18:12;;;;;;;30.25;4.47;;;7.50;99.90;;;;;;5040354;28;20049;-70
2024/02/19 02:20:39;;;;;;;17.40;2.90;;;7.50;99.90;;;;;;5042281;28;20461;-71
2024/02/19 02:23:05;;;;;;;25.60;5.20;;;7.60;99.90;;;;;;5042510;28;20091;-70
2024/02/19 02:25:33;;;;;;;25.92;9.65;;;7.50;99.90;;;;;;5006668;28;20112;-71
2024/02/19 02:27:59;;;;;;;30.70;7.45;;;7.60;99.90;;;;;;5045521;28;20048;-70
2024/02/19 02:30:25;;;;;;;33.05;7.10;;;7.60;99.90;;;;;;5032319;28;20056;-71
2024/02/19 02:32:55;;;;;;;22.98;9.20;;;7.50;99.90;;;;;;5042017;28;20052;-70
2024/02/19 02:35:25;;;;;;;22.48;7.97;;;7.60;99.90;;;;;;5019093;28;20518;-71
2024/02/19 02:37:51;;;;;;;24.25;7.68;;;7.60;99.90;;;;;;5043669;28;20048;-70
2024/02/19 02:40:16;;;;;;;10.15;2.63;;;7.60;99.90;;;;;;5044015;28;20453;-70
2024/02/19 02:42:43;;;;;;;30.63;8.38;;;7.70;99.90;;;;;;5040012;28;20139;-70
2024/02/19 02:45:09;;;;;;;32.22;10.20;;;7.70;99.90;;;;;;5026826;28;20046;-71
2024/02/19 02:47:35;;;;;;;27.00;7.72;;;7.70;99.90;;;;;;5042402;28;20056;-71
2024/02/19 02:50:00;;;;;;;38.22;10.23;;;7.70;99.90;;;;;;5043226;28;20044;-71
2024/02/19 02:52:26;;;;;;;28.67;8.25;;;7.60;99.90;;;;;;5022920;28;20127;-70
2024/02/19 02:54:52;;;;;;;30.52;11.20;;;7.70;99.90;;;;;;5006946;28;20068;-70
2024/02/19 02:57:18;;;;;;;29.00;10.23;;;7.70;99.90;;;;;;5033578;28;20410;-71
2024/02/19 02:59:43;;;;;;;28.85;8.50;;;7.70;99.90;;;;;;5032452;28;20040;-71
2024/02/19 03:02:09;;;;;;;35.50;9.63;;;7.70;99.90;;;;;;5048297;28;20066;-71
2024/02/19 03:04:35;;;;;;;26.83;7.63;;;7.70;99.90;;;;;;5014046;28;20405;-70
2024/02/19 03:07:01;;;;;;;30.85;8.88;;;7.70;99.90;;;;;;5048378;28;20078;-70
2024/02/19 03:09:26;;;;;;;30.45;11.70;;;7.80;99.90;;;;;;5047022;28;20036;-71
2024/02/19 03:11:52;;;;;;;23.92;8.57;;;7.80;99.90;;;;;;5026333;28;20095;-70
2024/02/19 03:14:18;;;;;;;28.25;11.23;;;7.80;99.90;;;;;;5030145;28;20048;-70
2024/02/19 03:16:44;;;;;;;27.48;8.85;;;7.80;99.90;;;;;;5044775;28;20140;-71
2024/02/19 03:19:09;;;;;;;21.38;4.28;;;7.80;99.90;;;;;;5016639;28;20041;-71
2024/02/19 03:21:36;;;;;;;22.83;2.80;;;7.90;99.90;;;;;;5045382;28;20064;-71
2024/02/19 03:24:02;;;;;;;22.50;5.22;;;7.80;99.90;;;;;;5030282;28;20079;-70
2024/02/19 03:26:28;;;;;;;26.70;4.90;;;7.80;99.90;;;;;;5011368;28;20574;-71
2024/02/19 03:28:54;;;;;;;22.98;5.57;;;7.80;99.90;;;;;;5041410;28;20037;-70
2024/02/19 03:31:20;;;;;;;18.15;5.65;;;7.80;99.90;;;;;;5024176;28;20044;-70
2024/02/19 03:33:46;;;;;;;22.42;5.57;;;7.80;99.90;;;;;;5018862;28;20053;-71
2024/02/19 03:36:12;;;;;;;21.45;4.95;;;7.80;99.90;;;;;;5045531;28;20473;-70
2024/02/19 03:38:38;;;;;;;16.42;4.57;;;7.80;99.90;;;;;;5029284;28;20059;-70
2024/02/19 03:41:04;;;;;;;20.10;3.97;;;7.80;99.90;;;;;;5023954;28;20240;-70
2024/02/19 03:43:34;;;;;;;13.65;3.22;;;7.80;99.90;;;;;;5031243;28;20071;-70
2024/02/19 03:46:05;;;;;;;17.50;3.43;;;7.80;99.90;;;;;;5033772;28;20338;-70
2024/02/19 03:48:34;;;;;;;21.20;3.33;;;7.90;99.90;;;;;;5043491;28;20048;-70
2024/02/19 03:51:00;;;;;;;18.42;3.22;;;7.90;99.90;;;;;;5018136;28;20155;-70
2024/02/19 03:53:26;;;;;;;12.52;2.97;;;7.90;99.90;;;;;;5038206;28;20055;-70
2024/02/19 03:55:51;;;;;;;13.80;2.80;;;7.90;99.90;;;;;;5016445;28;20071;-71
2024/02/19 03:58:17;;;;;;;14.30;1.85;;;8.00;99.90;;;;;;5029417;28;20499;-71
2024/02/19 04:00:43;;;;;;;13.13;2.10;;;8.00;99.90;;;;;;5020255;28;20453;-71
2024/02/19 04:03:09;;;;;;;14.38;2.28;;;8.00;99.90;;;;;;5031117;28;20458;-70
2024/02/19 04:05:35;;;;;;;9.13;1.33;;;8.00;99.90;;;;;;5028068;28;20036;-70
2024/02/19 04:08:01;;;;;;;4.95;0.95;;;8.00;99.90;;;;;;5030636;28;20503;-70
2024/02/19 04:10:27;;;;;;;13.00;2.05;;;8.00;99.90;;;;;;5028765;28;20051;-70
2024/02/19 04:12:53;;;;;;;14.80;1.73;;;8.10;99.90;;;;;;5019984;28;20055;-70
2024/02/19 04:15:18;;;;;;;12.57;1.38;;;8.10;99.90;;;;;;5046141;28;20123;-70
2024/02/19 04:17:47;;;;;;;14.07;1.55;;;8.10;99.90;;;;;;5019885;28;20041;-70
2024/02/19 04:20:13;;;;;;;10.07;1.58;;;8.10;99.90;;;;;;5046620;28;20045;-71
2024/02/19 04:22:39;;;;;;;9.10;1.70;;;8.10;99.90;;;;;;5035019;28;20057;-71
2024/02/19 04:25:04;;;;;;;9.75;1.70;;;8.10;99.90;;;;;;5022403;28;20071;-71
2024/02/19 04:27:30;;;;;;;14.95;2.80;;;8.10;99.90;;;;;;5038056;28;20131;-70
2024/02/19 04:29:56;;;;;;;15.13;2.53;;;8.10;99.90;;;;;;5045055;28;20043;-70
2024/02/19 04:32:22;;;;;;;14.13;3.22;;;8.20;99.90;;;;;;5052602;28;20163;-71
2024/02/19 04:34:47;;;;;;;14.02;3.95;;;8.20;99.90;;;;;;5028280;28;20131;-71
2024/02/19 04:37:14;;;;;;;15.18;3.55;;;8.20;99.90;;;;;;5045531;28;20047;-70
2024/02/19 04:39:40;;;;;;;17.70;4.45;;;8.20;99.90;;;;;;5030569;28;20056;-70
2024/02/19 04:42:05;;;;;;;24.85;5.65;;;8.20;99.90;;;;;;5038270;28;20049;-70
2024/02/19 04:44:31;;;;;;;6.82;0.73;;;8.10;99.90;;;;;;5009934;28;20491;-71
2024/02/19 04:46:57;;;;;;;9.18;1.50;;;8.10;99.90;;;;;;5015083;28;20052;-71
2024/02/19 04:49:23;;;;;;;15.95;2.13;;;8.10;99.90;;;;;;5026005;28;20071;-71
2024/02/19 04:51:49;;;;;;;13.65;1.45;;;8.00;99.90;;;;;;5023605;28;20045;-71
2024/02/19 04:54:14;;;;;;;11.75;2.00;;;8.00;99.90;;;;;;5027047;28;20087;-71
2024/02/19 04:56:40;;;;;;;18.48;2.13;;;7.90;99.90;;;;;;5027643;28;20147;-71
2024/02/19 04:59:06;;;;;;;19.55;1.65;;;7.90;99.90;;;;;;5043955;28;20463;-70
2024/02/19 05:01:32;;;;;;;9.63;1.58;;;7.90;99.90;;;;;;5025683;28;20103;-71
2024/02/19 05:03:58;;;;;;;13.65;1.65;;;7.90;99.90;;;;;;5011696;28;20044;-71
2024/02/19 05:06:24;;;;;;;10.98;2.03;;;7.90;99.90;;;;;;5045003;28;20148;-71
2024/02/19 05:08:50;;;;;;;3.97;0.73;;;7.90;99.90;;;;;;5042846;28;20119;-71
2024/02/19 05:11:16;;;;;;;5.05;1.17;;;7.80;99.90;;;;;;5036142;28;20137;-72
2024/02/19 05:13:42;;;;;;;24.60;3.05;;;7.80;99.90;;;;;;5024998;28;20044;-71
2024/02/19 05:16:09;;;;;;;21.55;2.88;;;7.80;99.90;;;;;;5045177;28;20384;-71
2024/02/19 05:18:35;;;;;;;25.73;3.00;;;7.80;99.90;;;;;;5026811;28;20390;-70
2024/02/19 05:21:02;;;;;;;22.23;2.67;;;7.80;99.90;;;;;;5045197;28;20053;-71
2024/02/19 05:23:32;;;;;;;20.88;2.13;;;7.80;99.90;;;;;;5026309;28;20136;-71
2024/02/19 05:25:58;;;;;;;18.77;2.90;;;7.70;99.90;;;;;;5043787;28;20060;-71
2024/02/19 05:28:24;;;;;;;9.10;1.00;;;7.80;99.90;;;;;;5011195;28;20053;-71
2024/02/19 05:30:50;;;;;;;19.05;2.72;;;7.80;99.90;;;;;;5044056;28;20058;-71
2024/02/19 05:33:18;;;;;;;8.02;1.15;;;7.80;99.90;;;;;;5029692;28;20044;-71
2024/02/19 05:35:44;;;;;;;20.75;2.92;;;7.90;99.90;;;;;;5041686;28;20040;-71
2024/02/19 05:38:11;;;;;;;17.13;2.75;;;7.90;99.90;;;;;;5036796;28;20048;-71
2024/02/19 05:40:38;;;;;;;18.85;2.53;;;7.90;99.90;;;;;;5044657;28;20530;-71
2024/02/19 05:43:04;;;;;;;19.35;2.47;;;7.90;99.90;;;;;;5033980;28;20449;-71
2024/02/19 05:45:30;;;;;;;17.02;2.63;;;7.90;99.90;;;;;;5041395;28;20127;-71
2024/02/19 05:47:56;;;;;;;18.70;2.85;;;7.90;99.90;;;;;;5043567;28;20127;-71
2024/02/19 05:50:22;;;;;;;22.73;2.97;;;7.90;99.90;;;;;;5024564;28;20037;-70
2024/02/19 05:52:47;;;;;;;16.27;2.30;;;7.90;99.90;;;;;;5042433;28;20056;-71
2024/02/19 05:55:13;;;;;;;15.82;1.92;;;7.90;99.90;;;;;;5028226;28;20040;-71
2024/02/19 05:57:39;;;;;;;19.75;3.10;;;7.90;99.90;;;;;;5042802;28;20051;-70
2024/02/19 06:00:10;;;;;;;30.52;3.42;;;7.90;99.90;;;;;;5010864;28;20072;-71
2024/02/19 06:02:36;;;;;;;25.83;2.40;;;8.00;99.90;;;;;;5041224;28;20051;-71
2024/02/19 06:05:03;;;;;;;30.23;4.78;;;7.90;99.90;;;;;;5038072;28;20040;-70
2024/02/19 06:07:29;;;;;;;24.45;3.20;;;7.90;99.90;;;;;;5030691;28;20063;-71
2024/02/19 06:09:54;;;;;;;18.80;2.70;;;7.90;99.90;;;;;;5039380;28;20380;-71
2024/02/19 06:12:21;;;;;;;17.90;2.17;;;7.90;99.90;;;;;;5042386;28;20132;-71
2024/02/19 06:14:46;;;;;;;32.78;4.70;;;7.90;99.90;;;;;;5029881;28;20411;-71
2024/02/19 06:17:12;;;;;;;19.95;3.50;;;8.00;99.90;;;;;;5040580;28;20072;-70
2024/02/19 06:19:38;;;;;;;15.52;1.48;;;8.00;99.90;;;;;;5004896;28;20049;-71
2024/02/19 06:22:04;;;;;;;24.70;2.80;;;7.90;99.90;;;;;;5025864;28;20069;-71
2024/02/19 06:24:30;;;;;;;10.77;1.90;;;8.00;99.90;;;;;;5039863;28;20131;-71
2024/02/19 06:26:56;;;;;;;19.27;2.75;;;7.90;99.90;;;;;;5044622;28;20119;-71
2024/02/19 06:29:22;;;;;;;18.33;2.72;;;7.90;99.90;;;;;;5033620;28;20093;-71
2024/02/19 06:31:50;;;;;;;24.25;3.30;;;7.90;99.90;;;;;;5042543;28;20157;-71
2024/02/19 06:34:16;;;;;;;15.80;1.67;;;7.90;99.90;;;;;;5027117;28;20060;-71
2024/02/19 06:36:42;;;;;;;15.32;2.95;;;7.90;99.90;;;;;;5043019;28;20102;-71
2024/02/19 06:39:08;;;;;;;20.95;3.20;;;7.90;99.90;;;;;;5035898;28;20070;-71
2024/02/19 06:41:34;;;;;;;18.60;2.85;;;7.80;99.90;;;;;;5026674;28;20128;-70
2024/02/19 06:43:59;;;;;;;17.77;2.22;;;7.90;99.90;;;;;;5017786;28;20077;-71
2024/02/19 06:46:25;;;;;;;21.08;3.00;;;7.90;99.90;;;;;;5038553;28;20055;-71
2024/02/19 06:48:51;;;;;;;12.85;2.20;;;7.90;99.90;;;;;;5034858;28;20044;-71
2024/02/19 06:51:17;;;;;;;22.17;3.20;;;7.90;99.90;;;;;;5020277;28;20048;-70
2024/02/19 06:53:43;;;;;;;27.08;2.83;;;8.00;99.90;;;;;;5008932;28;20135;-71
2024/02/19 06:56:09;;;;;;;24.75;3.45;;;8.00;99.90;;;;;;5043697;28;20177;-71
2024/02/19 06:58:34;;;;;;;23.20;2.28;;;8.00;99.90;;;;;;5025582;28;20067;-71
2024/02/19 07:01:04;;;;;;;7.90;2.08;;;8.00;99.90;;;;;;5010336;28;20155;-71
2024/02/19 07:03:29;;;;;;;19.85;2.70;;;8.00;99.90;;;;;;5033155;28;20442;-71
2024/02/19 07:05:55;;;;;;;24.23;3.35;;;8.00;99.90;;;;;;5047559;28;20044;-71
2024/02/19 07:08:21;;;;;;;16.10;3.75;;;8.10;99.90;;;;;;5039854;28;20048;-70
2024/02/19 07:10:47;;;;;;;28.15;3.22;;;8.10;99.90;;;;;;5041177;28;20580;-71
2024/02/19 07:13:13;;;;;;;34.35;4.32;;;8.10;99.90;;;;;;5041286;28;20048;-71
2024/02/19 07:15:39;;;;;;;33.95;3.83;;;8.10;99.90;;;;;;5042228;28;20394;-71
2024/02/19 07:18:05;;;;;;;20.15;2.75;;;8.10;99.90;;;;;;5022480;28;20087;-71
2024/02/19 07:20:31;;;;;;;20.98;2.75;;;8.20;99.90;;;;;;5043601;28;20059;-70
2024/02/19 07:22:56;;;;;;;22.17;2.85;;;8.20;99.90;;;;;;5003140;28;20040;-71
2024/02/19 07:25:22;;;;;;;30.60;3.35;;;8.20;99.90;;;;;;5010274;28;20072;-71
2024/02/19 07:27:48;;;;;;;27.50;2.78;;;8.20;99.90;;;;;;5020980;28;20198;-71
2024/02/19 07:30:14;;;;;;;16.05;3.30;;;8.20;99.90;;;;;;5005781;28;20041;-71
2024/02/19 07:32:40;;;;;;;28.65;3.80;;;8.20;99.90;;;;;;5026345;28;20231;-70
2024/02/19 07:35:06;;;;;;;24.20;3.65;;;8.20;99.90;;;;;;5022386;28;20033;-71
2024/02/19 07:37:31;;;;;;;30.88;3.38;;;8.20;99.90;;;;;;5022769;28;20044;-71
2024/02/19 07:39:57;;;;;;;33.38;4.15;;;8.20;99.90;;;;;;5025534;28;20613;-71
2024/02/19 07:42:23;;;;;;;27.08;3.83;;;8.20;99.90;;;;;;5041753;28;20087;-71
2024/02/19 07:44:48;;;;;;;24.13;3.28;;;8.20;99.90;;;;;;5045265;28;20403;-71
2024/02/19 07:47:17;;;;;;;31.88;4.15;;;8.30;99.90;;;;;;5040864;28;20127;-71
2024/02/19 07:49:43;;;;;;;34.45;4.40;;;8.20;99.90;;;;;;5024639;28;20499;-71
2024/02/19 07:52:08;;;;;;;28.42;4.50;;;8.30;99.90;;;;;;5056859;28;20473;-71
2024/02/19 07:54:34;;;;;;;29.38;3.83;;;8.30;99.90;;;;;;5025204;28;20067;-71
2024/02/19 07:57:00;;;;;;;34.38;4.82;;;8.30;99.90;;;;;;5033159;28;20048;-71
2024/02/19 07:59:26;;;;;;;33.55;5.05;;;8.30;99.90;;;;;;5028031;28;20067;-71
2024/02/19 08:01:51;;;;;;;28.98;3.60;;;8.30;99.90;;;;;;5025790;28;20059;-71
2024/02/19 08:04:17;;;;;;;30.23;3.88;;;8.40;99.90;;;;;;5025043;28;20262;-71
2024/02/19 08:06:43;;;;;;;23.55;3.72;;;8.30;99.90;;;;;;5021515;28;20041;-71
2024/02/19 08:09:08;;;;;;;40.05;4.85;;;8.40;99.90;;;;;;5040891;28;20045;-71
2024/02/19 08:11:35;;;;;;;29.15;4.20;;;8.50;99.90;;;;;;5019267;28;20049;-71
2024/02/19 08:14:00;;;;;;;33.08;4.10;;;8.40;99.90;;;;;;5026429;28;20111;-71
2024/02/19 08:16:26;;;;;;;24.15;3.60;;;8.50;99.90;;;;;;5025037;28;20131;-71
2024/02/19 08:18:52;;;;;;;33.63;3.85;;;8.50;99.90;;;;;;5021266;28;20154;-71
2024/02/19 08:21:18;;;;;;;32.90;4.53;;;8.60;99.90;;;;;;5026646;28;20365;-71
2024/02/19 08:23:44;;;;;;;23.77;3.88;;;8.60;99.90;;;;;;5000882;28;20412;-70
2024/02/19 08:26:10;;;;;;;17.30;2.83;;;8.70;99.90;;;;;;5022430;28;20049;-71
2024/02/19 08:28:35;;;;;;;30.92;4.13;;;8.70;99.90;;;;;;5042358;28;20037;-71
2024/02/19 08:31:01;;;;;;;25.38;2.83;;;8.80;99.90;;;;;;5023829;28;20049;-71
2024/02/19 08:33:27;;;;;;;17.67;2.70;;;8.80;99.90;;;;;;5029172;28;20183;-71
2024/02/19 08:35:54;;;;;;;24.65;3.40;;;8.80;99.90;;;;;;5057160;28;20052;-71
2024/02/19 08:38:20;;;;;;;17.52;2.78;;;8.80;99.90;;;;;;5022769;28;20041;-71
2024/02/19 08:40:45;;;;;;;30.27;3.70;;;8.80;99.90;;;;;;5011077;28;20112;-70
2024/02/19 08:43:11;;;;;;;25.27;3.88;;;8.90;99.90;;;;;;5046409;28;20117;-71
2024/02/19 08:45:40;;;;;;;16.27;3.67;;;8.90;99.90;;;;;;5018531;28;20057;-71
2024/02/19 08:48:07;;;;;;;19.27;3.72;;;8.90;99.90;;;;;;5027504;28;20110;-71
2024/02/19 08:50:33;;;;;;;28.00;3.72;;;8.90;99.90;;;;;;5020410;28;20064;-71
2024/02/19 08:53:00;;;;;;;13.15;2.80;;;9.00;99.90;;;;;;5022109;28;20776;-71
2024/02/19 08:55:26;;;;;;;23.45;3.25;;;9.10;99.90;;;;;;5037360;28;20040;-71
2024/02/19 08:57:51;;;;;;;28.98;3.33;;;9.30;99.90;;;;;;5021992;28;20409;-72
2024/02/19 09:00:17;;;;;;;18.60;3.85;;;9.50;99.90;;;;;;5029611;28;20044;-71
2024/02/19 09:02:43;;;;;;;20.30;3.30;;;9.60;99.90;;;;;;5020344;28;20036;-71
2024/02/19 09:05:12;;;;;;;25.98;3.72;;;9.60;99.90;;;;;;5047546;28;20095;-71
2024/02/19 09:07:38;;;;;;;21.65;3.80;;;9.60;99.90;;;;;;5012937;28;20049;-70
2024/02/19 09:10:04;;;;;;;27.85;4.32;;;9.60;99.90;;;;;;5016208;28;20492;-71
2024/02/19 09:12:30;;;;;;;21.00;3.63;;;9.60;99.90;;;;;;5036607;28;20408;-70
2024/02/19 09:15:04;;;;;;;29.27;4.30;;;9.50;99.90;;;;;;5028048;28;20055;-70
2024/02/19 09:17:30;;;;;;;23.38;3.13;;;9.60;99.90;;;;;;5017444;28;20534;-70
2024/02/19 09:19:56;;;;;;;24.33;3.00;;;9.60;99.90;;;;;;5023751;28;20048;-70
2024/02/19 09:22:22;;;;;;;14.13;2.60;;;9.60;99.90;;;;;;5035246;28;20060;-70
2024/02/19 09:24:50;;;;;;;18.48;2.75;;;9.60;99.90;;;;;;5024733;28;20494;-71
2024/02/19 09:27:16;;;;;;;12.40;2.45;;;9.60;99.90;;;;;;5025943;28;20052;-70
2024/02/19 09:29:42;;;;;;;24.73;2.60;;;9.70;99.90;;;;;;5026280;28;20067;-70
2024/02/19 09:32:08;;;;;;;28.33;4.10;;;9.80;99.90;;;;;;5034225;28;20435;-70
2024/02/19 09:34:34;;;;;;;16.80;2.65;;;9.70;99.90;;;;;;5037671;28;20045;-70
2024/02/19 09:37:00;;;;;;;15.20;2.28;;;9.70;99.90;;;;;;5002538;28;20055;-70
2024/02/19 09:39:27;;;;;;;10.38;1.77;;;9.70;99.90;;;;;;5009709;28;20060;-70
2024/02/19 09:41:53;;;;;;;3.55;0.80;;;9.60;99.90;;;;;;5038398;28;20131;-72
2024/02/19 09:44:19;;;;;;;1.65;0.60;;;9.60;99.90;;;;;;5035352;28;20048;-72
2024/02/19 09:46:48;;;;;;;7.32;1.80;;;9.60;99.90;;;;;;5018175;28;20032;-72
2024/02/19 09:49:17;;;;;;;12.43;1.88;;;9.50;99.90;;;;;;5019270;28;20128;-71
2024/02/19 09:51:54;;;;;;;7.32;1.75;;;9.60;99.90;;;;;;5026665;28;20823;-72
2024/02/19 09:54:21;;;;;;;13.50;2.10;;;9.60;99.90;;;;;;5026895;28;20522;-71
2024/02/19 09:56:50;;;;;;;4.75;1.13;;;9.60;99.90;;;;;;5018312;28;20049;-71
2024/02/19 09:59:16;;;;;;;13.90;2.03;;;9.60;99.90;;;;;;5036037;28;20576;-71
2024/02/19 10:01:42;;;;;;;6.82;1.67;;;9.70;99.90;;;;;;5026396;28;20255;-71
2024/02/19 10:04:10;;;;;;;16.63;3.13;;;9.60;99.90;;;;;;5023099;28;20052;-71
2024/02/19 10:06:36;;;;;;;3.63;1.38;;;9.60;99.90;;;;;;5023062;28;20032;-72
2024/02/19 10:09:11;;;;;;;11.98;2.20;;;9.60;99.90;;;;;;5021493;28;20045;-71
2024/02/19 10:11:38;;;;;;;14.57;2.60;;;9.60;99.90;;;;;;5014015;28;20124;-71
2024/02/19 10:14:04;;;;;;;21.80;3.95;;;9.60;99.90;;;;;;5038380;28;20523;-71
2024/02/19 10:16:30;;;;;;;2.67;1.25;;;9.60;99.90;;;;;;5047540;28;20106;-72
2024/02/19 10:19:04;;;;;;;11.63;2.92;;;9.60;99.90;;;;;;5039891;28;20056;-73
2024/02/19 10:21:30;;;;;;;4.47;1.52;;;9.60;99.90;;;;;;5020258;28;20032;-73
2024/02/19 10:23:56;;;;;;;3.28;1.25;;;9.60;99.90;;;;;;5034808;28;20129;-73
2024/02/19 10:26:22;;;;;;;2.92;0.80;;;9.50;99.90;;;;;;5030284;28;20135;-73
2024/02/19 10:28:54;;;;;;;5.25;1.77;;;9.50;99.90;;;;;;5025622;28;20052;-73
2024/02/19 10:31:21;;;;;;;15.43;2.40;;;9.50;99.90;;;;;;5008738;28;20097;-73
2024/02/19 10:33:47;;;;;;;9.70;2.78;;;9.60;99.90;;;;;;5024752;28;20080;-73
2024/02/19 10:36:18;;;;;;;15.85;3.80;;;9.60;99.90;;;;;;5021971;28;20088;-73
2024/02/19 10:38:44;;;;;;;2.90;1.33;;;9.70;99.90;;;;;;5025599;28;20044;-73
2024/02/19 10:41:10;;;;;;;19.13;3.38;;;9.70;99.90;;;;;;5007265;28;20068;-73
2024/02/19 10:43:36;;;;;;;13.68;4.25;;;9.80;99.90;;;;;;5034289;28;20040;-72
2024/02/19 10:46:04;;;;;;;13.25;4.63;;;9.80;99.90;;;;;;4999089;28;20041;-72
2024/02/19 10:48:31;;;;;;;12.20;3.35;;;9.80;99.90;;;;;;5026455;28;20052;-73
2024/02/19 10:50:57;;;;;;;2.88;1.67;;;9.80;99.90;;;;;;5025689;28;20041;-72
2024/02/19 10:53:28;;;;;;;18.35;4.72;;;9.80;99.90;;;;;;5025816;28;20081;-73
2024/02/19 10:56:16;;;;;;;8.45;3.08;;;9.80;99.90;;;;;;5023128;28;20389;-73
2024/02/19 10:58:56;;;;;;;14.00;3.35;;;9.70;99.90;;;;;;5026927;28;20605;-72
2024/02/19 11:01:23;;;;;;;21.10;6.50;;;9.80;99.90;;;;;;5034353;28;20124;-73
2024/02/19 11:03:49;;;;;;;8.60;2.47;;;9.70;99.90;;;;;;5018520;28;20080;-73
2024/02/19 11:06:15;;;;;;;13.18;3.33;;;9.70;99.90;;;;;;5036448;28;20048;-73
2024/02/19 11:08:53;;;;;;;7.28;2.22;;;9.70;99.90;;;;;;5037650;28;20531;-73
2024/02/19 11:11:20;;;;;;;10.05;3.42;;;9.80;99.90;;;;;;5037138;28;20114;-73
2024/02/19 11:13:48;;;;;;;13.35;3.05;;;9.90;99.90;;;;;;5008468;28;20064;-73
2024/02/19 11:16:19;;;;;;;19.92;4.25;;;9.90;99.90;;;;;;5043480;28;20052;-73
2024/02/19 11:18:45;;;;;;;15.73;3.65;;;10.00;99.90;;;;;;5017905;28;20059;-73
2024/02/19 11:21:11;;;;;;;18.02;3.78;;;9.90;99.90;;;;;;5038561;28;20080;-73
2024/02/19 11:23:39;;;;;;;14.45;4.43;;;10.00;99.90;;;;;;5049417;28;20088;-72
2024/02/19 11:26:05;;;;;;;14.82;4.18;;;10.00;99.90;;;;;;5037829;28;20143;-73
2024/02/19 11:28:32;;;;;;;18.05;4.57;;;10.10;99.90;;;;;;5041636;28;20078;-72
2024/02/19 11:31:02;;;;;;;19.88;4.43;;;10.10;99.90;;;;;;5027874;28;20111;-73
2024/02/19 11:33:29;;;;;;;15.63;4.93;;;10.20;99.90;;;;;;5042114;28;20257;-73
2024/02/19 11:35:56;;;;;;;26.48;4.97;;;10.20;99.90;;;;;;5019683;28;20474;-73
2024/02/19 11:38:26;;;;;;;21.23;4.05;;;10.20;99.90;;;;;;5034424;28;20045;-72
2024/02/19 11:40:53;;;;;;;20.23;5.17;;;10.10;99.90;;;;;;5045389;28;20052;-72
2024/02/19 11:43:19;;;;;;;19.42;4.00;;;10.10;99.90;;;;;;5044475;28;20280;-72
2024/02/19 11:45:45;;;;;;;25.35;6.05;;;10.00;99.90;;;;;;5013096;28;20172;-72
2024/02/19 11:48:11;;;;;;;5.68;1.33;;;9.90;99.90;;;;;;5018504;28;20628;-72
2024/02/19 11:50:37;;;;;;;13.57;4.82;;;9.90;99.90;;;;;;5029284;28;20426;-73
2024/02/19 11:53:04;;;;;;;13.85;4.60;;;9.80;99.90;;;;;;5030309;28;20060;-73
2024/02/19 11:55:31;;;;;;;18.80;5.28;;;9.90;99.90;;;;;;5031008;28;20428;-74
2024/02/19 11:58:00;;;;;;;14.30;3.42;;;9.90;99.90;;;;;;5012939;28;20068;-73
2024/02/19 12:00:29;;;;;;;11.97;3.77;;;9.90;99.90;;;;;;5039914;28;20048;-74
2024/02/19 12:03:03;;;;;;;8.13;3.00;;;10.00;99.90;;;;;;5046369;28;20136;-73
2024/02/19 12:05:29;;;;;;;16.15;4.47;;;10.00;99.90;;;;;;5012383;28;20036;-73
2024/02/19 12:07:55;;;;;;;9.15;3.53;;;10.00;99.90;;;;;;5037807;28;20059;-73
2024/02/19 12:10:21;;;;;;;6.78;2.38;;;10.00;99.90;;;;;;5027985;28;20052;-73
2024/02/19 12:12:49;;;;;;;10.50;3.92;;;10.00;99.90;;;;;;5045311;28;20044;-73
2024/02/19 12:15:15;;;;;;;10.18;3.03;;;9.90;99.90;;;;;;5045258;28;20123;-73
2024/02/19 12:17:43;;;;;;;22.63;5.30;;;9.90;99.90;;;;;;5028984;28;20135;-73
2024/02/19 12:20:12;;;;;;;14.07;4.18;;;9.90;99.90;;;;;;5037010;28;20052;-74
2024/02/19 12:22:42;;;;;;;11.52;4.28;;;9.90;99.90;;;;;;5012803;28;20045;-73
2024/02/19 12:25:08;;;;;;;23.03;7.70;;;9.90;99.90;;;;;;5027066;28;20049;-73
2024/02/19 12:27:34;;;;;;;23.67;5.30;;;9.90;99.90;;;;;;5026524;28;20447;-73
2024/02/19 12:30:01;;;;;;;20.65;4.88;;;9.80;99.90;;;;;;5035064;28;20041;-73
2024/02/19 12:32:28;;;;;;;27.15;6.82;;;9.90;99.90;;;;;;5039136;28;20051;-73
2024/02/19 12:34:54;;;;;;;23.63;7.00;;;9.90;99.90;;;;;;5026143;28;20407;-73
2024/02/19 12:37:20;;;;;;;15.32;4.53;;;9.90;99.90;;;;;;5019504;28;20592;-73
2024/02/19 12:39:46;;;;;;;18.25;4.50;;;9.90;99.90;;;;;;5026159;28;20060;-73
2024/02/19 12:42:12;;;;;;;17.63;4.03;;;9.80;99.90;;;;;;5025110;28;20517;-73
2024/02/19 12:44:38;;;;;;;12.38;3.20;;;9.90;99.90;;;;;;5042208;28;20044;-73